Chalkyitsik, Alaska
Current Conditions -  °F | °C
As of 9:16 PM on Monday 20 Oct 2014 (Local Time) from PFYU Reporting Station
Overcast Overcast  
Wind Chill: 16°   Ceiling: 5000
Heat Index: 27°   Visibility: 10mi
Dew Point: 18°   Wind: 12mph
Humidity: 69%   Direction: 60°ENE
Pressure: 29.39"   Gusts: NA
Location:  66.65°N, 143.72°W
Report Text: PFYU 210516Z 06010KT 10SM OVC050 M03/M08 A2939 RMK AO1
Loading
Personal Weather Stations






























Interactive Weather Map
Tropical Storm Tracking
New forecast layout! Learn more

10-Day Weather Forecast

Advertisements
Track Severe Weather on mobile